sensor_id;sensor_type;location;lat;lon;timestamp;temperature;humidity
64689;DHT22;62504;46.070;14.492;2023-04-15T00:00:27;9.50;99.90
64689;DHT22;62504;46.070;14.492;2023-04-15T00:02:53;9.50;99.90
64689;DHT22;62504;46.070;14.492;2023-04-15T00:05:20;9.50;99.90
64689;DHT22;62504;46.070;14.492;2023-04-15T00:07:45;9.40;99.90
64689;DHT22;62504;46.070;14.492;2023-04-15T00:10:12;9.50;99.90
64689;DHT22;62504;46.070;14.492;2023-04-15T00:12:37;9.50;99.90
64689;DHT22;62504;46.070;14.492;2023-04-15T00:15:03;9.50;99.90
64689;DHT22;62504;46.070;14.492;2023-04-15T00:17:29;9.60;99.90
64689;DHT22;62504;46.070;14.492;2023-04-15T00:19:55;9.50;99.90
64689;DHT22;62504;46.070;14.492;2023-04-15T00:22:21;9.50;99.90
64689;DHT22;62504;46.070;14.492;2023-04-15T00:24:47;9.50;99.90
64689;DHT22;62504;46.070;14.492;2023-04-15T00:27:12;9.50;99.90
64689;DHT22;62504;46.070;14.492;2023-04-15T00:29:38;9.50;99.90
64689;DHT22;62504;46.070;14.492;2023-04-15T00:32:04;9.50;99.90
64689;DHT22;62504;46.070;14.492;2023-04-15T00:34:30;9.50;99.90
64689;DHT22;62504;46.070;14.492;2023-04-15T00:36:56;9.40;99.90
64689;DHT22;62504;46.070;14.492;2023-04-15T00:39:22;9.40;99.90
64689;DHT22;62504;46.070;14.492;2023-04-15T00:41:48;9.40;99.90
64689;DHT22;62504;46.070;14.492;2023-04-15T00:44:14;9.40;99.90
64689;DHT22;62504;46.070;14.492;2023-04-15T00:46:40;9.50;99.90
64689;DHT22;62504;46.070;14.492;2023-04-15T00:49:07;9.50;99.90
64689;DHT22;62504;46.070;14.492;2023-04-15T00:51:33;9.40;99.90
64689;DHT22;62504;46.070;14.492;2023-04-15T00:54:02;9.50;99.90
64689;DHT22;62504;46.070;14.492;2023-04-15T00:56:28;9.50;99.90
64689;DHT22;62504;46.070;14.492;2023-04-15T00:58:54;9.50;99.90
64689;DHT22;62504;46.070;14.492;2023-04-15T01:01:21;9.50;99.90
64689;DHT22;62504;46.070;14.492;2023-04-15T01:03:49;9.50;99.90
64689;DHT22;62504;46.070;14.492;2023-04-15T01:06:16;9.40;99.90
64689;DHT22;62504;46.070;14.492;2023-04-15T01:08:42;9.40;99.90
64689;DHT22;62504;46.070;14.492;2023-04-15T01:11:08;9.40;99.90
64689;DHT22;62504;46.070;14.492;2023-04-15T01:13:35;9.40;99.90
64689;DHT22;62504;46.070;14.492;2023-04-15T01:16:01;9.40;99.90
64689;DHT22;62504;46.070;14.492;2023-04-15T01:18:28;9.30;99.90
64689;DHT22;62504;46.070;14.492;2023-04-15T01:20:54;9.30;99.90
64689;DHT22;62504;46.070;14.492;2023-04-15T01:23:20;9.40;99.90
64689;DHT22;62504;46.070;14.492;2023-04-15T01:25:50;9.40;99.90
64689;DHT22;62504;46.070;14.492;2023-04-15T01:28:17;9.40;99.90
64689;DHT22;62504;46.070;14.492;2023-04-15T01:30:43;9.40;99.90
64689;DHT22;62504;46.070;14.492;2023-04-15T01:33:09;9.40;99.90
64689;DHT22;62504;46.070;14.492;2023-04-15T01:35:35;9.40;99.90
64689;DHT22;62504;46.070;14.492;2023-04-15T01:38:05;9.40;99.90
64689;DHT22;62504;46.070;14.492;2023-04-15T01:40:32;9.40;99.90
64689;DHT22;62504;46.070;14.492;2023-04-15T01:42:58;9.30;99.90
64689;DHT22;62504;46.070;14.492;2023-04-15T01:45:24;9.30;99.90
64689;DHT22;62504;46.070;14.492;2023-04-15T01:47:50;9.40;99.90
64689;DHT22;62504;46.070;14.492;2023-04-15T01:50:15;9.40;99.90
64689;DHT22;62504;46.070;14.492;2023-04-15T01:52:41;9.30;99.90
64689;DHT22;62504;46.070;14.492;2023-04-15T01:55:08;9.30;99.90
64689;DHT22;62504;46.070;14.492;2023-04-15T01:57:34;9.30;99.90
64689;DHT22;62504;46.070;14.492;2023-04-15T02:00:00;9.40;99.90
64689;DHT22;62504;46.070;14.492;2023-04-15T02:02:25;9.40;99.90
64689;DHT22;62504;46.070;14.492;2023-04-15T02:04:51;9.40;99.90
64689;DHT22;62504;46.070;14.492;2023-04-15T02:07:17;9.40;99.90
64689;DHT22;62504;46.070;14.492;2023-04-15T02:09:44;9.40;99.90
64689;DHT22;62504;46.070;14.492;2023-04-15T02:12:10;9.30;99.90
64689;DHT22;62504;46.070;14.492;2023-04-15T02:14:36;9.20;99.90
64689;DHT22;62504;46.070;14.492;2023-04-15T02:17:02;9.20;99.90
64689;DHT22;62504;46.070;14.492;2023-04-15T02:19:32;9.20;99.90
64689;DHT22;62504;46.070;14.492;2023-04-15T02:21:58;9.20;99.90
64689;DHT22;62504;46.070;14.492;2023-04-15T02:24:26;9.20;99.90
64689;DHT22;62504;46.070;14.492;2023-04-15T02:26:52;9.40;99.90
64689;DHT22;62504;46.070;14.492;2023-04-15T02:29:17;9.40;99.90
64689;DHT22;62504;46.070;14.492;2023-04-15T02:31:43;9.40;99.90
64689;DHT22;62504;46.070;14.492;2023-04-15T02:34:10;9.30;99.90
64689;DHT22;62504;46.070;14.492;2023-04-15T02:36:35;9.20;99.90
64689;DHT22;62504;46.070;14.492;2023-04-15T02:39:02;9.20;99.90
64689;DHT22;62504;46.070;14.492;2023-04-15T02:41:28;9.20;99.90
64689;DHT22;62504;46.070;14.492;2023-04-15T02:43:54;9.00;99.90
64689;DHT22;62504;46.070;14.492;2023-04-15T02:46:20;9.00;99.90
64689;DHT22;62504;46.070;14.492;2023-04-15T02:48:47;9.00;99.90
64689;DHT22;62504;46.070;14.492;2023-04-15T02:51:18;9.10;99.90
64689;DHT22;62504;46.070;14.492;2023-04-15T02:53:44;9.10;99.90
64689;DHT22;62504;46.070;14.492;2023-04-15T02:56:10;9.10;99.90
64689;DHT22;62504;46.070;14.492;2023-04-15T02:58:38;9.00;99.90
64689;DHT22;62504;46.070;14.492;2023-04-15T03:01:03;9.10;99.90
64689;DHT22;62504;46.070;14.492;2023-04-15T03:03:29;9.10;99.90
64689;DHT22;62504;46.070;14.492;2023-04-15T03:05:55;9.00;99.90
64689;DHT22;62504;46.070;14.492;2023-04-15T03:08:21;9.00;99.90
64689;DHT22;62504;46.070;14.492;2023-04-15T03:10:46;9.10;99.90
64689;DHT22;62504;46.070;14.492;2023-04-15T03:13:12;9.10;99.90
64689;DHT22;62504;46.070;14.492;2023-04-15T03:15:38;9.20;99.90
64689;DHT22;62504;46.070;14.492;2023-04-15T03:18:04;9.20;99.90
64689;DHT22;62504;46.070;14.492;2023-04-15T03:20:29;9.20;99.90
64689;DHT22;62504;46.070;14.492;2023-04-15T03:22:55;9.20;99.90
64689;DHT22;62504;46.070;14.492;2023-04-15T03:25:21;9.20;99.90
64689;DHT22;62504;46.070;14.492;2023-04-15T03:27:47;9.20;99.90
64689;DHT22;62504;46.070;14.492;2023-04-15T03:30:12;9.20;99.90
64689;DHT22;62504;46.070;14.492;2023-04-15T03:32:38;9.30;99.90
64689;DHT22;62504;46.070;14.492;2023-04-15T03:35:04;9.30;99.90
64689;DHT22;62504;46.070;14.492;2023-04-15T03:37:30;9.20;99.90
64689;DHT22;62504;46.070;14.492;2023-04-15T03:39:56;9.30;99.90
64689;DHT22;62504;46.070;14.492;2023-04-15T03:42:22;9.20;99.90
64689;DHT22;62504;46.070;14.492;2023-04-15T03:44:48;9.20;99.90
64689;DHT22;62504;46.070;14.492;2023-04-15T03:47:14;9.20;99.90
64689;DHT22;62504;46.070;14.492;2023-04-15T03:49:39;9.20;99.90
64689;DHT22;62504;46.070;14.492;2023-04-15T03:52:05;9.20;99.90
64689;DHT22;62504;46.070;14.492;2023-04-15T03:54:31;9.20;99.90
64689;DHT22;62504;46.070;14.492;2023-04-15T03:56:57;9.30;99.90
64689;DHT22;62504;46.070;14.492;2023-04-15T03:59:22;9.30;99.90
64689;DHT22;62504;46.070;14.492;2023-04-15T04:01:48;9.30;99.90
64689;DHT22;62504;46.070;14.492;2023-04-15T04:04:14;9.30;99.90
64689;DHT22;62504;46.070;14.492;2023-04-15T04:06:40;9.30;99.90
64689;DHT22;62504;46.070;14.492;2023-04-15T04:09:05;9.30;99.90
64689;DHT22;62504;46.070;14.492;2023-04-15T04:11:31;9.30;99.90
64689;DHT22;62504;46.070;14.492;2023-04-15T04:13:57;9.20;99.90
64689;DHT22;62504;46.070;14.492;2023-04-15T04:16:23;9.20;99.90
64689;DHT22;62504;46.070;14.492;2023-04-15T04:18:49;9.20;99.90
64689;DHT22;62504;46.070;14.492;2023-04-15T04:21:15;9.20;99.90
64689;DHT22;62504;46.070;14.492;2023-04-15T04:23:41;9.30;99.90
64689;DHT22;62504;46.070;14.492;2023-04-15T04:26:06;9.20;99.90
64689;DHT22;62504;46.070;14.492;2023-04-15T04:28:32;9.20;99.90
64689;DHT22;62504;46.070;14.492;2023-04-15T04:30:58;9.20;99.90
64689;DHT22;62504;46.070;14.492;2023-04-15T04:33:23;9.20;99.90
64689;DHT22;62504;46.070;14.492;2023-04-15T04:35:49;9.20;99.90
64689;DHT22;62504;46.070;14.492;2023-04-15T04:38:15;9.20;99.90
64689;DHT22;62504;46.070;14.492;2023-04-15T04:40:40;9.20;99.90
64689;DHT22;62504;46.070;14.492;2023-04-15T04:43:06;9.30;99.90
64689;DHT22;62504;46.070;14.492;2023-04-15T04:45:32;9.20;99.90
64689;DHT22;62504;46.070;14.492;2023-04-15T04:47:58;9.20;99.90
64689;DHT22;62504;46.070;14.492;2023-04-15T04:50:23;9.20;99.90
64689;DHT22;62504;46.070;14.492;2023-04-15T04:52:49;9.20;99.90
64689;DHT22;62504;46.070;14.492;2023-04-15T04:55:15;9.30;99.90
64689;DHT22;62504;46.070;14.492;2023-04-15T04:57:41;9.30;99.90
64689;DHT22;62504;46.070;14.492;2023-04-15T05:00:07;9.30;99.90
64689;DHT22;62504;46.070;14.492;2023-04-15T05:02:33;9.30;99.90
64689;DHT22;62504;46.070;14.492;2023-04-15T05:04:59;9.30;99.90
64689;DHT22;62504;46.070;14.492;2023-04-15T05:07:25;9.20;99.90
64689;DHT22;62504;46.070;14.492;2023-04-15T05:09:51;9.30;99.90
64689;DHT22;62504;46.070;14.492;2023-04-15T05:12:17;9.30;99.90
64689;DHT22;62504;46.070;14.492;2023-04-15T05:14:43;9.30;99.90
64689;DHT22;62504;46.070;14.492;2023-04-15T05:17:09;9.30;99.90
64689;DHT22;62504;46.070;14.492;2023-04-15T05:19:35;9.30;99.90
64689;DHT22;62504;46.070;14.492;2023-04-15T05:22:01;9.30;99.90
64689;DHT22;62504;46.070;14.492;2023-04-15T05:24:27;9.30;99.90
64689;DHT22;62504;46.070;14.492;2023-04-15T05:26:53;9.40;99.90
64689;DHT22;62504;46.070;14.492;2023-04-15T05:29:19;9.40;99.90
64689;DHT22;62504;46.070;14.492;2023-04-15T05:31:44;9.40;99.90
64689;DHT22;62504;46.070;14.492;2023-04-15T05:34:10;9.40;99.90
64689;DHT22;62504;46.070;14.492;2023-04-15T05:36:36;9.50;99.90
64689;DHT22;62504;46.070;14.492;2023-04-15T05:39:02;9.50;99.90
64689;DHT22;62504;46.070;14.492;2023-04-15T05:41:28;9.60;99.90
64689;DHT22;62504;46.070;14.492;2023-04-15T05:43:54;9.60;99.90
64689;DHT22;62504;46.070;14.492;2023-04-15T05:46:20;9.60;99.90
64689;DHT22;62504;46.070;14.492;2023-04-15T05:48:46;9.70;99.90
64689;DHT22;62504;46.070;14.492;2023-04-15T05:51:12;9.60;99.90
64689;DHT22;62504;46.070;14.492;2023-04-15T05:53:38;9.70;99.90
64689;DHT22;62504;46.070;14.492;2023-04-15T05:56:06;9.70;99.90
64689;DHT22;62504;46.070;14.492;2023-04-15T05:58:31;9.80;99.90
64689;DHT22;62504;46.070;14.492;2023-04-15T06:00:57;9.80;99.90
64689;DHT22;62504;46.070;14.492;2023-04-15T06:03:23;9.80;99.90
64689;DHT22;62504;46.070;14.492;2023-04-15T06:05:49;9.80;99.90
64689;DHT22;62504;46.070;14.492;2023-04-15T06:08:15;9.80;99.90
64689;DHT22;62504;46.070;14.492;2023-04-15T06:10:41;9.90;99.90
64689;DHT22;62504;46.070;14.492;2023-04-15T06:13:07;10.00;99.90
64689;DHT22;62504;46.070;14.492;2023-04-15T06:15:33;10.00;99.90
64689;DHT22;62504;46.070;14.492;2023-04-15T06:17:58;10.00;99.90
64689;DHT22;62504;46.070;14.492;2023-04-15T06:20:24;10.10;99.90
64689;DHT22;62504;46.070;14.492;2023-04-15T06:22:51;10.10;99.90
64689;DHT22;62504;46.070;14.492;2023-04-15T06:25:16;10.20;99.90
64689;DHT22;62504;46.070;14.492;2023-04-15T06:27:42;10.20;99.90
64689;DHT22;62504;46.070;14.492;2023-04-15T06:30:08;10.10;99.90
64689;DHT22;62504;46.070;14.492;2023-04-15T06:32:34;10.20;99.90
64689;DHT22;62504;46.070;14.492;2023-04-15T06:35:00;10.20;99.90
64689;DHT22;62504;46.070;14.492;2023-04-15T06:37:25;10.20;99.90
64689;DHT22;62504;46.070;14.492;2023-04-15T06:39:51;10.30;99.90
64689;DHT22;62504;46.070;14.492;2023-04-15T06:42:17;10.40;99.90
64689;DHT22;62504;46.070;14.492;2023-04-15T06:44:43;10.40;99.90
64689;DHT22;62504;46.070;14.492;2023-04-15T06:47:08;10.40;99.90
64689;DHT22;62504;46.070;14.492;2023-04-15T06:49:34;10.50;99.90
64689;DHT22;62504;46.070;14.492;2023-04-15T06:52:00;10.50;99.90
64689;DHT22;62504;46.070;14.492;2023-04-15T06:54:26;10.50;99.90
64689;DHT22;62504;46.070;14.492;2023-04-15T06:56:52;10.60;99.90
64689;DHT22;62504;46.070;14.492;2023-04-15T06:59:17;10.60;99.90
64689;DHT22;62504;46.070;14.492;2023-04-15T07:01:43;10.70;99.90
64689;DHT22;62504;46.070;14.492;2023-04-15T07:04:09;10.70;99.90
64689;DHT22;62504;46.070;14.492;2023-04-15T07:06:35;10.70;99.90
64689;DHT22;62504;46.070;14.492;2023-04-15T07:09:01;10.70;99.90
64689;DHT22;62504;46.070;14.492;2023-04-15T07:11:27;10.80;99.90
64689;DHT22;62504;46.070;14.492;2023-04-15T07:13:53;10.80;99.90
64689;DHT22;62504;46.070;14.492;2023-04-15T07:16:19;10.90;99.90
64689;DHT22;62504;46.070;14.492;2023-04-15T07:18:45;10.90;99.90
64689;DHT22;62504;46.070;14.492;2023-04-15T07:21:11;10.90;99.90
64689;DHT22;62504;46.070;14.492;2023-04-15T07:23:37;11.00;99.90
64689;DHT22;62504;46.070;14.492;2023-04-15T07:26:03;11.00;99.90
64689;DHT22;62504;46.070;14.492;2023-04-15T07:28:28;11.10;99.90
64689;DHT22;62504;46.070;14.492;2023-04-15T07:30:54;11.20;99.90
64689;DHT22;62504;46.070;14.492;2023-04-15T07:33:21;11.30;99.90
64689;DHT22;62504;46.070;14.492;2023-04-15T07:35:48;11.40;99.90
64689;DHT22;62504;46.070;14.492;2023-04-15T07:38:13;11.50;99.90
64689;DHT22;62504;46.070;14.492;2023-04-15T07:40:39;11.70;99.90
64689;DHT22;62504;46.070;14.492;2023-04-15T07:43:05;11.80;99.90
64689;DHT22;62504;46.070;14.492;2023-04-15T07:45:31;11.80;99.90
64689;DHT22;62504;46.070;14.492;2023-04-15T07:47:57;11.80;99.90
64689;DHT22;62504;46.070;14.492;2023-04-15T07:50:23;11.80;99.90
64689;DHT22;62504;46.070;14.492;2023-04-15T07:52:50;11.80;99.90
64689;DHT22;62504;46.070;14.492;2023-04-15T07:55:16;11.80;99.90
64689;DHT22;62504;46.070;14.492;2023-04-15T07:57:44;11.80;99.90
64689;DHT22;62504;46.070;14.492;2023-04-15T08:00:12;11.80;99.90
64689;DHT22;62504;46.070;14.492;2023-04-15T08:02:38;11.80;99.90
64689;DHT22;62504;46.070;14.492;2023-04-15T08:05:04;11.80;99.90
64689;DHT22;62504;46.070;14.492;2023-04-15T08:07:29;11.80;99.90
64689;DHT22;62504;46.070;14.492;2023-04-15T08:09:55;11.80;99.90
64689;DHT22;62504;46.070;14.492;2023-04-15T08:12:22;11.80;99.90
64689;DHT22;62504;46.070;14.492;2023-04-15T08:14:50;11.90;99.90
64689;DHT22;62504;46.070;14.492;2023-04-15T08:17:16;12.00;99.90
64689;DHT22;62504;46.070;14.492;2023-04-15T08:19:42;11.90;99.90
64689;DHT22;62504;46.070;14.492;2023-04-15T08:22:08;12.00;99.90
64689;DHT22;62504;46.070;14.492;2023-04-15T08:24:34;11.90;99.90
64689;DHT22;62504;46.070;14.492;2023-04-15T08:27:00;11.90;99.90
64689;DHT22;62504;46.070;14.492;2023-04-15T08:29:28;12.00;99.90
64689;DHT22;62504;46.070;14.492;2023-04-15T08:31:54;12.00;99.90
64689;DHT22;62504;46.070;14.492;2023-04-15T08:34:20;11.90;99.90
64689;DHT22;62504;46.070;14.492;2023-04-15T08:36:45;11.90;99.90
64689;DHT22;62504;46.070;14.492;2023-04-15T08:39:11;11.90;99.90
64689;DHT22;62504;46.070;14.492;2023-04-15T08:41:45;11.90;99.90
64689;DHT22;62504;46.070;14.492;2023-04-15T08:44:14;11.90;99.90
64689;DHT22;62504;46.070;14.492;2023-04-15T08:46:40;11.90;99.90
64689;DHT22;62504;46.070;14.492;2023-04-15T08:49:10;11.90;99.90
64689;DHT22;62504;46.070;14.492;2023-04-15T08:51:40;11.90;99.90
64689;DHT22;62504;46.070;14.492;2023-04-15T08:54:07;11.90;99.90
64689;DHT22;62504;46.070;14.492;2023-04-15T08:56:33;12.00;99.90
64689;DHT22;62504;46.070;14.492;2023-04-15T08:59:06;12.00;99.90
64689;DHT22;62504;46.070;14.492;2023-04-15T09:01:32;12.00;99.90
64689;DHT22;62504;46.070;14.492;2023-04-15T09:03:58;12.00;99.90
64689;DHT22;62504;46.070;14.492;2023-04-15T09:06:25;12.00;99.90
64689;DHT22;62504;46.070;14.492;2023-04-15T09:08:53;12.00;99.90
64689;DHT22;62504;46.070;14.492;2023-04-15T09:11:20;12.10;99.90
64689;DHT22;62504;46.070;14.492;2023-04-15T09:13:46;12.00;99.90
64689;DHT22;62504;46.070;14.492;2023-04-15T09:16:12;12.00;99.90
64689;DHT22;62504;46.070;14.492;2023-04-15T09:18:38;12.00;99.90
64689;DHT22;62504;46.070;14.492;2023-04-15T09:23:31;12.10;99.90
64689;DHT22;62504;46.070;14.492;2023-04-15T09:25:57;12.10;99.90
64689;DHT22;62504;46.070;14.492;2023-04-15T09:28:24;12.00;99.90
64689;DHT22;62504;46.070;14.492;2023-04-15T09:31:00;12.10;99.90
64689;DHT22;62504;46.070;14.492;2023-04-15T09:33:27;12.00;99.90
64689;DHT22;62504;46.070;14.492;2023-04-15T09:36:11;12.10;99.90
64689;DHT22;62504;46.070;14.492;2023-04-15T09:38:56;12.10;99.90
64689;DHT22;62504;46.070;14.492;2023-04-15T09:41:24;12.20;99.90
64689;DHT22;62504;46.070;14.492;2023-04-15T09:43:49;12.20;99.90
64689;DHT22;62504;46.070;14.492;2023-04-15T09:46:15;12.20;99.90
64689;DHT22;62504;46.070;14.492;2023-04-15T09:48:41;12.20;99.90
64689;DHT22;62504;46.070;14.492;2023-04-15T09:51:07;12.20;99.90
64689;DHT22;62504;46.070;14.492;2023-04-15T09:53:34;12.20;99.90
64689;DHT22;62504;46.070;14.492;2023-04-15T09:56:01;12.30;99.90
64689;DHT22;62504;46.070;14.492;2023-04-15T09:58:29;12.40;99.90
64689;DHT22;62504;46.070;14.492;2023-04-15T10:00:56;12.40;99.90
64689;DHT22;62504;46.070;14.492;2023-04-15T10:03:27;12.40;99.90
64689;DHT22;62504;46.070;14.492;2023-04-15T10:05:54;12.40;99.90
64689;DHT22;62504;46.070;14.492;2023-04-15T10:08:29;12.40;99.90
64689;DHT22;62504;46.070;14.492;2023-04-15T10:10:54;12.40;99.90
64689;DHT22;62504;46.070;14.492;2023-04-15T10:13:23;12.40;99.90
64689;DHT22;62504;46.070;14.492;2023-04-15T10:15:58;12.30;99.90
64689;DHT22;62504;46.070;14.492;2023-04-15T10:18:26;12.40;99.90
64689;DHT22;62504;46.070;14.492;2023-04-15T10:20:53;12.40;99.90
64689;DHT22;62504;46.070;14.492;2023-04-15T10:23:19;12.40;99.90
64689;DHT22;62504;46.070;14.492;2023-04-15T10:25:46;12.30;99.90
64689;DHT22;62504;46.070;14.492;2023-04-15T10:28:14;12.20;99.90
64689;DHT22;62504;46.070;14.492;2023-04-15T10:30:42;12.20;99.90
64689;DHT22;62504;46.070;14.492;2023-04-15T10:33:08;12.00;99.90
64689;DHT22;62504;46.070;14.492;2023-04-15T10:35:35;12.00;99.90
64689;DHT22;62504;46.070;14.492;2023-04-15T10:38:01;11.80;99.90
64689;DHT22;62504;46.070;14.492;2023-04-15T10:40:30;11.60;99.90
64689;DHT22;62504;46.070;14.492;2023-04-15T10:42:58;11.60;99.90
64689;DHT22;62504;46.070;14.492;2023-04-15T10:45:26;11.60;99.90
64689;DHT22;62504;46.070;14.492;2023-04-15T10:48:00;11.50;99.90
64689;DHT22;62504;46.070;14.492;2023-04-15T10:50:30;11.50;99.90
64689;DHT22;62504;46.070;14.492;2023-04-15T10:52:57;11.50;99.90
64689;DHT22;62504;46.070;14.492;2023-04-15T10:55:25;11.30;99.90
64689;DHT22;62504;46.070;14.492;2023-04-15T10:57:57;11.20;99.90
64689;DHT22;62504;46.070;14.492;2023-04-15T11:00:29;11.10;99.90
64689;DHT22;62504;46.070;14.492;2023-04-15T11:02:58;11.10;99.90
64689;DHT22;62504;46.070;14.492;2023-04-15T11:08:08;11.00;99.90
64689;DHT22;62504;46.070;14.492;2023-04-15T11:13:02;11.00;99.90
64689;DHT22;62504;46.070;14.492;2023-04-15T11:20:38;10.70;99.90
64689;DHT22;62504;46.070;14.492;2023-04-15T11:23:04;10.70;99.90
64689;DHT22;62504;46.070;14.492;2023-04-15T11:25:32;10.90;99.90
64689;DHT22;62504;46.070;14.492;2023-04-15T11:27:59;11.00;99.90
64689;DHT22;62504;46.070;14.492;2023-04-15T11:30:28;11.10;99.90
64689;DHT22;62504;46.070;14.492;2023-04-15T11:32:57;11.10;99.90
64689;DHT22;62504;46.070;14.492;2023-04-15T11:35:23;11.10;99.90
64689;DHT22;62504;46.070;14.492;2023-04-15T11:37:49;11.30;99.90
64689;DHT22;62504;46.070;14.492;2023-04-15T11:40:19;11.20;99.90
64689;DHT22;62504;46.070;14.492;2023-04-15T11:42:46;11.30;99.90
64689;DHT22;62504;46.070;14.492;2023-04-15T11:45:28;11.40;99.90
64689;DHT22;62504;46.070;14.492;2023-04-15T11:47:53;11.40;99.90
64689;DHT22;62504;46.070;14.492;2023-04-15T11:50:23;11.50;99.90
64689;DHT22;62504;46.070;14.492;2023-04-15T11:53:00;11.60;99.90
64689;DHT22;62504;46.070;14.492;2023-04-15T11:55:26;11.70;99.90
64689;DHT22;62504;46.070;14.492;2023-04-15T11:58:25;11.70;99.90
64689;DHT22;62504;46.070;14.492;2023-04-15T12:00:58;11.70;99.90
64689;DHT22;62504;46.070;14.492;2023-04-15T12:03:47;11.60;99.90
64689;DHT22;62504;46.070;14.492;2023-04-15T12:06:22;11.70;99.90
64689;DHT22;62504;46.070;14.492;2023-04-15T12:09:07;11.70;99.90
64689;DHT22;62504;46.070;14.492;2023-04-15T12:16:57;11.60;99.90
64689;DHT22;62504;46.070;14.492;2023-04-15T12:19:26;11.60;99.90
64689;DHT22;62504;46.070;14.492;2023-04-15T12:21:57;11.60;99.90
64689;DHT22;62504;46.070;14.492;2023-04-15T12:24:23;11.50;99.90
64689;DHT22;62504;46.070;14.492;2023-04-15T12:26:50;11.50;99.90
64689;DHT22;62504;46.070;14.492;2023-04-15T12:29:17;11.50;99.90
64689;DHT22;62504;46.070;14.492;2023-04-15T12:32:11;11.40;99.90
64689;DHT22;62504;46.070;14.492;2023-04-15T12:37:05;11.10;99.90
64689;DHT22;62504;46.070;14.492;2023-04-15T12:39:35;11.00;99.90
64689;DHT22;62504;46.070;14.492;2023-04-15T12:42:01;10.80;99.90
64689;DHT22;62504;46.070;14.492;2023-04-15T12:44:27;10.60;99.90
64689;DHT22;62504;46.070;14.492;2023-04-15T12:46:53;10.40;99.90
64689;DHT22;62504;46.070;14.492;2023-04-15T12:49:23;10.40;99.90
64689;DHT22;62504;46.070;14.492;2023-04-15T12:51:50;10.20;99.90
64689;DHT22;62504;46.070;14.492;2023-04-15T12:54:16;10.30;99.90
64689;DHT22;62504;46.070;14.492;2023-04-15T12:56:43;10.30;99.90
64689;DHT22;62504;46.070;14.492;2023-04-15T12:59:09;10.20;99.90
64689;DHT22;62504;46.070;14.492;2023-04-15T13:01:34;10.00;99.90
64689;DHT22;62504;46.070;14.492;2023-04-15T13:04:00;9.90;99.90
64689;DHT22;62504;46.070;14.492;2023-04-15T13:06:26;9.80;99.90
64689;DHT22;62504;46.070;14.492;2023-04-15T13:08:53;9.70;99.90
64689;DHT22;62504;46.070;14.492;2023-04-15T13:11:21;9.50;99.90
64689;DHT22;62504;46.070;14.492;2023-04-15T13:13:47;9.30;99.90
64689;DHT22;62504;46.070;14.492;2023-04-15T13:16:12;9.30;99.90
64689;DHT22;62504;46.070;14.492;2023-04-15T13:18:38;9.30;99.90
64689;DHT22;62504;46.070;14.492;2023-04-15T13:21:04;9.30;99.90
64689;DHT22;62504;46.070;14.492;2023-04-15T13:23:32;9.20;99.90
64689;DHT22;62504;46.070;14.492;2023-04-15T13:25:58;9.20;99.90
64689;DHT22;62504;46.070;14.492;2023-04-15T13:28:23;9.20;99.90
64689;DHT22;62504;46.070;14.492;2023-04-15T13:30:49;9.10;99.90
64689;DHT22;62504;46.070;14.492;2023-04-15T13:33:16;9.10;99.90
64689;DHT22;62504;46.070;14.492;2023-04-15T13:35:42;9.00;99.90
64689;DHT22;62504;46.070;14.492;2023-04-15T13:38:08;8.90;99.90
64689;DHT22;62504;46.070;14.492;2023-04-15T13:40:34;9.00;99.90
64689;DHT22;62504;46.070;14.492;2023-04-15T13:42:59;9.00;99.90
64689;DHT22;62504;46.070;14.492;2023-04-15T13:45:26;9.10;99.90
64689;DHT22;62504;46.070;14.492;2023-04-15T13:47:52;9.10;99.90
64689;DHT22;62504;46.070;14.492;2023-04-15T13:50:18;9.20;99.90
64689;DHT22;62504;46.070;14.492;2023-04-15T13:52:43;9.20;99.90
64689;DHT22;62504;46.070;14.492;2023-04-15T13:55:09;9.00;99.90
64689;DHT22;62504;46.070;14.492;2023-04-15T13:57:35;9.10;99.90
64689;DHT22;62504;46.070;14.492;2023-04-15T14:00:02;9.30;99.90
64689;DHT22;62504;46.070;14.492;2023-04-15T14:02:29;9.60;99.90
64689;DHT22;62504;46.070;14.492;2023-04-15T14:04:55;9.60;99.90
64689;DHT22;62504;46.070;14.492;2023-04-15T14:07:21;9.40;99.90
64689;DHT22;62504;46.070;14.492;2023-04-15T14:09:47;9.30;99.90
64689;DHT22;62504;46.070;14.492;2023-04-15T14:12:13;9.20;99.90
64689;DHT22;62504;46.070;14.492;2023-04-15T14:14:39;9.20;99.90
64689;DHT22;62504;46.070;14.492;2023-04-15T14:17:05;9.30;99.90
64689;DHT22;62504;46.070;14.492;2023-04-15T14:19:31;9.40;99.90
64689;DHT22;62504;46.070;14.492;2023-04-15T14:21:57;9.40;99.90
64689;DHT22;62504;46.070;14.492;2023-04-15T14:24:23;9.50;99.90
64689;DHT22;62504;46.070;14.492;2023-04-15T14:26:49;9.70;99.90
64689;DHT22;62504;46.070;14.492;2023-04-15T14:29:15;9.70;99.90
64689;DHT22;62504;46.070;14.492;2023-04-15T14:31:41;9.70;99.90
64689;DHT22;62504;46.070;14.492;2023-04-15T14:34:09;9.60;99.90
64689;DHT22;62504;46.070;14.492;2023-04-15T14:36:35;9.70;99.90
64689;DHT22;62504;46.070;14.492;2023-04-15T14:39:00;9.70;99.90
64689;DHT22;62504;46.070;14.492;2023-04-15T14:41:26;9.60;99.90
64689;DHT22;62504;46.070;14.492;2023-04-15T14:43:52;9.70;99.90
64689;DHT22;62504;46.070;14.492;2023-04-15T14:46:17;9.50;99.90
64689;DHT22;62504;46.070;14.492;2023-04-15T14:48:43;9.50;99.90
64689;DHT22;62504;46.070;14.492;2023-04-15T14:51:09;9.50;99.90
64689;DHT22;62504;46.070;14.492;2023-04-15T14:53:35;9.50;99.90
64689;DHT22;62504;46.070;14.492;2023-04-15T14:56:00;9.70;99.90
64689;DHT22;62504;46.070;14.492;2023-04-15T14:58:26;9.80;99.90
64689;DHT22;62504;46.070;14.492;2023-04-15T15:00:51;9.70;99.90
64689;DHT22;62504;46.070;14.492;2023-04-15T15:03:17;9.70;99.90
64689;DHT22;62504;46.070;14.492;2023-04-15T15:05:45;9.80;99.90
64689;DHT22;62504;46.070;14.492;2023-04-15T15:08:11;9.80;99.90
64689;DHT22;62504;46.070;14.492;2023-04-15T15:10:37;9.90;99.90
64689;DHT22;62504;46.070;14.492;2023-04-15T15:13:05;9.90;99.90
64689;DHT22;62504;46.070;14.492;2023-04-15T15:15:31;9.80;99.90
64689;DHT22;62504;46.070;14.492;2023-04-15T15:17:57;9.70;99.90
64689;DHT22;62504;46.070;14.492;2023-04-15T15:20:23;9.60;99.90
64689;DHT22;62504;46.070;14.492;2023-04-15T15:22:49;9.70;99.90
64689;DHT22;62504;46.070;14.492;2023-04-15T15:25:16;9.80;99.90
64689;DHT22;62504;46.070;14.492;2023-04-15T15:27:41;9.80;99.90
64689;DHT22;62504;46.070;14.492;2023-04-15T15:30:07;9.90;99.90
64689;DHT22;62504;46.070;14.492;2023-04-15T15:32:33;9.90;99.90
64689;DHT22;62504;46.070;14.492;2023-04-15T15:34:59;9.80;99.90
64689;DHT22;62504;46.070;14.492;2023-04-15T15:37:25;9.90;99.90
64689;DHT22;62504;46.070;14.492;2023-04-15T15:39:51;9.90;99.90
64689;DHT22;62504;46.070;14.492;2023-04-15T15:42:20;9.90;99.90